createdAt,value
2016-04-11T00:00:04.771Z,80.61
2016-04-11T00:00:14.771Z,80.52
2016-04-11T00:00:24.771Z,80.61
2016-04-11T00:00:34.787Z,80.52
2016-04-11T00:00:44.787Z,80.71
2016-04-11T00:00:54.789Z,80.33
2016-04-11T00:01:04.804Z,80.42
2016-04-11T00:01:14.804Z,80.42
2016-04-11T00:01:24.820Z,81.37
2016-04-11T00:01:34.804Z,80.42
2016-04-11T00:01:44.820Z,80.33
2016-04-11T00:01:54.823Z,80.71
2016-04-11T00:02:04.823Z,80.71
2016-04-11T00:02:14.823Z,80.71
2016-04-11T00:02:24.073Z,80.61
2016-04-11T00:02:34.839Z,80.52
2016-04-11T00:02:44.839Z,80.52
2016-04-11T00:02:54.842Z,80.52
2016-04-11T00:03:04.857Z,80.61
2016-04-11T00:03:14.857Z,81.24
2016-04-11T00:03:24.873Z,80.57
2016-04-11T00:03:34.857Z,80.66
2016-04-11T00:03:44.873Z,80.57
2016-04-11T00:03:54.875Z,80.57
2016-04-11T00:04:04.890Z,80.86
2016-04-11T00:04:14.890Z,80.66
2016-04-11T00:04:24.890Z,80.29
2016-04-11T00:04:34.890Z,80.99
2016-04-11T00:04:44.906Z,81.05
2016-04-11T00:04:54.909Z,81.05
2016-04-11T00:05:04.909Z,81.14
2016-04-11T00:05:14.909Z,80.95
2016-04-11T00:05:24.925Z,80.95
2016-04-11T00:05:34.925Z,81.05
2016-04-11T00:05:44.925Z,80.95
2016-04-11T00:05:54.942Z,81.24
2016-04-11T00:06:04.942Z,80.95
2016-04-11T00:06:14.942Z,81.14
2016-04-11T00:06:24.942Z,81.05
2016-04-11T00:06:34.958Z,81.24
2016-04-11T00:06:44.958Z,80.86
2016-04-11T00:06:54.962Z,80.76
2016-04-11T00:07:04.978Z,80.95
2016-04-11T00:07:14.978Z,80.95
2016-04-11T00:07:24.993Z,81.05
2016-04-11T00:07:34.978Z,81.52
2016-04-11T00:07:44.993Z,81.52
2016-04-11T00:07:54.995Z,81.52
2016-04-11T00:08:05.011Z,81.52
2016-04-11T00:08:15.011Z,81.43
2016-04-11T00:08:25.011Z,81.43
2016-04-11T00:08:35.011Z,81.33
2016-04-11T00:08:45.011Z,81.62
2016-04-11T00:08:55.029Z,81.52
2016-04-11T00:09:05.045Z,81.62
2016-04-11T00:09:15.029Z,81.05
2016-04-11T00:09:25.045Z,81.05
2016-04-11T00:09:35.045Z,80.86
2016-04-11T00:09:45.045Z,81.05
2016-04-11T00:09:55.048Z,80.95
2016-04-11T00:10:05.064Z,80.76
2016-04-11T00:10:15.064Z,80.76
2016-04-11T00:10:25.079Z,80.95
2016-04-11T00:10:35.079Z,80.76
2016-04-11T00:10:45.079Z,81.52
2016-04-11T00:10:55.082Z,80.95
2016-04-11T00:11:05.082Z,80.95
2016-04-11T00:11:15.098Z,80.76
2016-04-11T00:11:25.114Z,80.95
2016-04-11T00:11:35.098Z,80.8
2016-04-11T00:11:45.114Z,80.86
2016-04-11T00:11:55.147Z,81.24
2016-04-11T00:12:05.116Z,81.05
2016-04-11T00:12:15.116Z,80.86
2016-04-11T00:12:25.116Z,81.24
2016-04-11T00:12:35.131Z,81.52
2016-04-11T00:12:45.131Z,81.24
2016-04-11T00:12:55.149Z,81.43
2016-04-11T00:13:05.149Z,81.52
2016-04-11T00:13:15.149Z,81.24
2016-04-11T00:13:25.149Z,81.33
2016-04-11T00:13:35.149Z,81.24
2016-04-11T00:13:45.164Z,81.24
2016-04-11T00:13:55.167Z,81.24
2016-04-11T00:14:05.167Z,81.43
2016-04-11T00:14:15.183Z,81.05
2016-04-11T00:14:25.183Z,81.24
2016-04-11T00:14:35.183Z,81.14
2016-04-11T00:14:45.200Z,81.24
2016-04-11T00:14:55.187Z,81.24
2016-04-11T00:15:05.203Z,81.05
2016-04-11T00:15:15.203Z,81.43
2016-04-11T00:15:25.218Z,81.24
2016-04-11T00:15:35.218Z,81.24
2016-04-11T00:15:45.218Z,81.24
2016-04-11T00:15:55.237Z,81.43
2016-04-11T00:16:05.237Z,81.14
2016-04-11T00:16:15.237Z,81.33
2016-04-11T00:16:25.237Z,81.33
2016-04-11T00:16:35.253Z,81.43
2016-04-11T00:16:45.253Z,81.24
2016-04-11T00:16:55.255Z,81.43
2016-04-11T00:17:05.255Z,81.24
2016-04-11T00:17:15.255Z,81.24
2016-04-11T00:17:25.270Z,81.24
2016-04-11T00:17:35.270Z,81.24
2016-04-11T00:17:45.270Z,81.43
2016-04-11T00:17:55.289Z,81.43
2016-04-11T00:18:05.289Z,81.33
2016-04-11T00:18:15.289Z,81.33
2016-04-11T00:18:25.304Z,81.24
2016-04-11T00:18:35.304Z,81.52
2016-04-11T00:18:45.304Z,81.05
2016-04-11T00:18:55.323Z,81.05
2016-04-11T00:19:05.323Z,81.62
2016-04-11T00:19:15.323Z,81.24
2016-04-11T00:19:25.323Z,81.24
2016-04-11T00:19:35.323Z,81.43
2016-04-11T00:19:45.339Z,81.33
2016-04-11T00:19:55.342Z,81.24
2016-04-11T00:20:05.404Z,81.43
2016-04-11T00:20:15.357Z,81.52
2016-04-11T00:20:25.357Z,81.52
2016-04-11T00:20:35.357Z,81.52
2016-04-11T00:20:45.373Z,81.43
2016-04-11T00:20:55.375Z,81.33
2016-04-11T00:21:05.375Z,81.43
2016-04-11T00:21:15.375Z,81.33
2016-04-11T00:21:25.391Z,81.52
2016-04-11T00:21:35.391Z,81.43
2016-04-11T00:21:45.391Z,81.43
2016-04-11T00:21:55.394Z,81.43
2016-04-11T00:22:05.409Z,81.52
2016-04-11T00:22:15.409Z,81.43
2016-04-11T00:22:25.409Z,81.52
2016-04-11T00:22:35.425Z,81.52
2016-04-11T00:22:45.425Z,81.52
2016-04-11T00:22:55.443Z,81.24
2016-04-11T00:23:05.428Z,81.14
2016-04-11T00:23:15.443Z,81.62
2016-04-11T00:23:25.443Z,81.43
2016-04-11T00:23:35.443Z,81.24
2016-04-11T00:23:45.443Z,81.24
2016-04-11T00:23:55.461Z,81.43
2016-04-11T00:24:05.461Z,81.43
2016-04-11T00:24:15.477Z,81.24
2016-04-11T00:24:25.461Z,81.43
2016-04-11T00:24:35.477Z,81.43
2016-04-11T00:24:45.477Z,81.33
2016-04-11T00:24:55.495Z,81.43
2016-04-11T00:25:05.495Z,81.33
2016-04-11T00:25:15.495Z,81.24
2016-04-11T00:25:25.495Z,81.33
2016-04-11T00:25:35.511Z,81.24
2016-04-11T00:25:45.511Z,81.33
2016-04-11T00:25:55.529Z,81.24
2016-04-11T00:26:05.529Z,81.24
2016-04-11T00:26:15.513Z,81.24
2016-04-11T00:26:25.529Z,81.33
2016-04-11T00:26:35.529Z,81.43
2016-04-11T00:26:45.529Z,81.33
2016-04-11T00:26:55.594Z,81.52
2016-04-11T00:27:05.563Z,81.33
2016-04-11T00:27:15.547Z,81.33
2016-04-11T00:27:25.563Z,81.05
2016-04-11T00:27:35.563Z,81.33
2016-04-11T00:27:45.563Z,81.33
2016-04-11T00:27:55.566Z,81.33
2016-04-11T00:28:05.581Z,81.05
2016-04-11T00:28:15.581Z,81.24
2016-04-11T00:28:25.581Z,81.24
2016-04-11T00:28:35.581Z,81.43
2016-04-11T00:28:45.597Z,81.14
2016-04-11T00:28:55.600Z,81.52
2016-04-11T00:29:05.600Z,81.24
2016-04-11T00:29:15.616Z,81.05
2016-04-11T00:29:25.616Z,81.33
2016-04-11T00:29:35.616Z,81.14
2016-04-11T00:29:45.631Z,81.05
2016-04-11T00:29:55.633Z,81.14
2016-04-11T00:30:05.633Z,81.52
2016-04-11T00:30:15.633Z,81.05
2016-04-11T00:30:25.649Z,81.14
2016-04-11T00:30:35.649Z,81.33
2016-04-11T00:30:45.649Z,81.71
2016-04-11T00:30:55.652Z,81.52
2016-04-11T00:31:05.668Z,81.43
2016-04-11T00:31:15.668Z,81.52
2016-04-11T00:31:25.668Z,81.71
2016-04-11T00:31:35.683Z,81.33
2016-04-11T00:31:45.683Z,81.43
2016-04-11T00:31:55.686Z,81.33
2016-04-11T00:32:05.686Z,81.24
2016-04-11T00:32:15.702Z,81.62
2016-04-11T00:32:25.702Z,81.52
2016-04-11T00:32:35.717Z,81.52
2016-04-11T00:32:45.858Z,81.52
2016-04-11T00:32:55.732Z,81.33
2016-04-11T00:33:05.573Z,81.52
2016-04-11T00:33:15.729Z,81.52
2016-04-11T00:33:28.205Z,81.24
2016-04-11T00:33:35.736Z,81.52
2016-04-11T00:33:45.736Z,81.43
2016-04-11T00:33:55.755Z,81.62
2016-04-11T00:34:05.739Z,81.52
2016-04-11T00:34:15.598Z,81.52
2016-04-11T00:34:25.755Z,81.33
2016-04-11T00:34:35.755Z,81.52
2016-04-11T00:34:45.755Z,81.52
2016-04-11T00:34:55.773Z,81.52
2016-04-11T00:35:06.305Z,81.52
2016-04-11T00:35:15.789Z,81.81
2016-04-11T00:35:25.795Z,81.24
2016-04-11T00:35:35.795Z,81.33
2016-04-11T00:35:45.810Z,81.43
2016-04-11T00:35:56.032Z,81.43
2016-04-11T00:36:05.803Z,81.43
2016-04-11T00:36:15.827Z,81.71
2016-04-11T00:36:30.311Z,81.43
2016-04-11T00:36:35.827Z,81.43
2016-04-11T00:36:45.811Z,81.52
2016-04-11T00:36:55.814Z,81.52
2016-04-11T00:37:05.830Z,81.81
2016-04-11T00:37:15.830Z,81.52
2016-04-11T00:37:25.830Z,81.43
2016-04-11T00:37:35.830Z,81.43
2016-04-11T00:37:45.846Z,81.33
2016-04-11T00:37:55.849Z,81.62
2016-04-11T00:38:05.864Z,81.33
2016-04-11T00:38:15.864Z,81.43
2016-04-11T00:38:25.864Z,81.05
2016-04-11T00:38:35.864Z,81.52
2016-04-11T00:38:45.864Z,81.52
2016-04-11T00:38:55.883Z,81.43
2016-04-11T00:39:05.883Z,81.71
2016-04-11T00:39:15.883Z,81.43
2016-04-11T00:39:25.883Z,81.43
2016-04-11T00:39:35.899Z,81.52
2016-04-11T00:39:45.899Z,81.71
2016-04-11T00:39:55.901Z,81.52
2016-04-11T00:40:05.916Z,81.81
2016-04-11T00:40:15.916Z,81.52
2016-04-11T00:40:25.916Z,81.62
2016-04-11T00:40:35.916Z,81.62
2016-04-11T00:40:45.932Z,81.62
2016-04-11T00:40:55.950Z,81.52
2016-04-11T00:41:05.950Z,81.9
2016-04-11T00:41:15.935Z,81.62
2016-04-11T00:41:25.950Z,81.52
2016-04-11T00:41:35.950Z,81.71
2016-04-11T00:41:45.966Z,81.81
2016-04-11T00:41:55.968Z,81.9
2016-04-11T00:42:05.812Z,82.09
2016-04-11T00:42:16.171Z,82.09
2016-04-11T00:42:25.984Z,82.09
2016-04-11T00:42:35.984Z,81.9
2016-04-11T00:42:45.984Z,81.81
2016-04-11T00:42:55.987Z,81.81
2016-04-11T00:43:05.987Z,81.71
2016-04-11T00:43:16.002Z,81.62
2016-04-11T00:43:26.002Z,81.52
2016-04-11T00:43:36.002Z,81.81
2016-04-11T00:43:46.002Z,81.81
2016-04-11T00:43:56.021Z,81.52
2016-04-11T00:44:06.021Z,81.71
2016-04-11T00:44:16.021Z,81.71
2016-04-11T00:44:26.037Z,81.71
2016-04-11T00:44:36.037Z,81.71
2016-04-11T00:44:46.037Z,81.9
2016-04-11T00:44:56.040Z,81.71
2016-04-11T00:45:06.055Z,81.71
2016-04-11T00:45:16.055Z,82.09
2016-04-11T00:45:26.055Z,81.81
2016-04-11T00:45:36.071Z,81.9
2016-04-11T00:45:46.071Z,81.9
2016-04-11T00:45:56.073Z,82.09
2016-04-11T00:46:06.073Z,81.71
2016-04-11T00:46:16.088Z,81.9
2016-04-11T00:46:26.088Z,81.9
2016-04-11T00:46:36.088Z,81.81
2016-04-11T00:46:46.104Z,81.71
2016-04-11T00:46:56.107Z,81.77
2016-04-11T00:47:06.107Z,81.9
2016-04-11T00:47:16.123Z,81.96
2016-04-11T00:47:26.123Z,81.81
2016-04-11T00:47:36.123Z,81.9
2016-04-11T00:47:46.138Z,81.9
2016-04-11T00:47:56.141Z,81.86
2016-04-11T00:48:06.141Z,81.67
2016-04-11T00:48:16.157Z,81.67
2016-04-11T00:48:26.141Z,81.67
2016-04-11T00:48:36.157Z,81.67
2016-04-11T00:48:46.157Z,81.77
2016-04-11T00:48:56.160Z,82.05
2016-04-11T00:49:06.160Z,82.05
2016-04-11T00:49:16.176Z,82.05
2016-04-11T00:49:26.176Z,81.96
2016-04-11T00:49:36.176Z,82.15
2016-04-11T00:49:46.176Z,82.05
2016-04-11T00:49:56.193Z,82.34
2016-04-11T00:50:06.193Z,82.34
2016-04-11T00:50:16.193Z,82.34
2016-04-11T00:50:26.193Z,82.43
2016-04-11T00:50:36.209Z,82.34
2016-04-11T00:50:46.209Z,82.34
2016-04-11T00:50:56.212Z,82.24
2016-04-11T00:51:06.227Z,82.38
2016-04-11T00:51:16.243Z,82.34
2016-04-11T00:51:26.227Z,82.34
2016-04-11T00:51:36.227Z,82.34
2016-04-11T00:51:46.243Z,82.43
2016-04-11T00:51:56.246Z,82.34
2016-04-11T00:52:06.246Z,82.34
2016-04-11T00:52:16.246Z,82.19
2016-04-11T00:52:26.262Z,82.34
2016-04-11T00:52:36.262Z,82.34
2016-04-11T00:52:46.262Z,82.34
2016-04-11T00:52:56.265Z,82.38
2016-04-11T00:53:06.280Z,82.34
2016-04-11T00:53:16.280Z,82.43
2016-04-11T00:53:26.280Z,82.34
2016-04-11T00:53:36.296Z,82.43
2016-04-11T00:53:46.296Z,82.38
2016-04-11T00:53:56.298Z,82.24
2016-04-11T00:54:06.314Z,81.96
2016-04-11T00:54:16.314Z,82.19
2016-04-11T00:54:26.314Z,82.19
2016-04-11T00:54:36.314Z,82.15
2016-04-11T00:54:46.314Z,82.19
2016-04-11T00:54:56.348Z,82.24
2016-04-11T00:55:06.332Z,82.34
2016-04-11T00:55:16.348Z,82.15
2016-04-11T00:55:26.348Z,82.24
2016-04-11T00:55:36.348Z,82.24
2016-04-11T00:55:46.348Z,82.34
2016-04-11T00:55:56.350Z,82.24
2016-04-11T00:56:06.365Z,82.24
2016-04-11T00:56:16.365Z,82.24
2016-04-11T00:56:26.365Z,82.15
2016-04-11T00:56:36.381Z,82.15
2016-04-11T00:56:46.397Z,82.05
2016-04-11T00:56:56.509Z,81.96
2016-04-11T00:57:06.618Z,82.05
2016-04-11T00:57:16.400Z,81.96
2016-04-11T00:57:26.400Z,82.15
2016-04-11T00:57:36.400Z,82.05
2016-04-11T00:57:46.400Z,82.05
2016-04-11T00:57:56.418Z,82.05
2016-04-11T00:58:06.418Z,82.15
2016-04-11T00:58:16.434Z,82.15
2016-04-11T00:58:26.418Z,82.34
2016-04-11T00:58:36.434Z,81.96
2016-04-11T00:58:46.434Z,82.05
2016-04-11T00:58:56.436Z,82.05
2016-04-11T00:59:06.452Z,81.96
2016-04-11T00:59:16.452Z,81.96
2016-04-11T00:59:26.452Z,81.96
2016-04-11T00:59:36.467Z,81.96
2016-04-11T00:59:46.467Z,82.05
2016-04-11T00:59:56.470Z,82.05
2016-04-11T01:00:06.470Z,82.34
2016-04-11T01:00:16.486Z,82.43
2016-04-11T01:00:26.486Z,82.34
2016-04-11T01:00:36.486Z,82.24
2016-04-11T01:00:46.501Z,82.24
2016-04-11T01:00:56.504Z,82.34
2016-04-11T01:01:06.536Z,82.34
2016-04-11T01:01:16.504Z,83
2016-04-11T01:01:26.520Z,82.71
2016-04-11T01:01:36.520Z,82.81
2016-04-11T01:01:46.520Z,82.62
2016-04-11T01:01:56.522Z,82.71
2016-04-11T01:02:06.538Z,82.71
2016-04-11T01:02:16.538Z,82.71
2016-04-11T01:02:26.538Z,82.71
2016-04-11T01:02:36.538Z,82.91
2016-04-11T01:02:46.553Z,82.91
2016-04-11T01:02:56.556Z,82.91
2016-04-11T01:03:06.556Z,82.53
2016-04-11T01:03:16.572Z,82.62
2016-04-11T01:03:26.572Z,82.53
2016-04-11T01:03:36.572Z,82.62
2016-04-11T01:03:46.572Z,82.53
2016-04-11T01:03:56.590Z,82.81
2016-04-11T01:04:06.590Z,82.81
2016-04-11T01:04:16.605Z,82.71
2016-04-11T01:04:26.605Z,83.1
2016-04-11T01:04:36.605Z,83.1
2016-04-11T01:04:46.605Z,82.62
2016-04-11T01:04:56.608Z,82.71
2016-04-11T01:05:06.624Z,82.62
2016-04-11T01:05:16.624Z,83.29
2016-04-11T01:05:26.624Z,83.29
2016-04-11T01:05:36.624Z,83
2016-04-11T01:05:46.639Z,83
2016-04-11T01:05:56.642Z,82.81
2016-04-11T01:06:06.642Z,83.1
2016-04-11T01:06:16.642Z,82.91
2016-04-11T01:06:26.658Z,83
2016-04-11T01:06:36.658Z,83.1
2016-04-11T01:06:46.658Z,83.1
2016-04-11T01:06:56.677Z,83.1
2016-04-11T01:07:06.677Z,83.1
2016-04-11T01:07:16.677Z,83.1
2016-04-11T01:07:26.677Z,83
2016-04-11T01:07:36.692Z,83
2016-04-11T01:07:46.692Z,83.29
2016-04-11T01:07:56.695Z,83
2016-04-11T01:08:06.695Z,83.1
2016-04-11T01:08:16.711Z,83.29
2016-04-11T01:08:26.711Z,83.29
2016-04-11T01:08:36.711Z,83
2016-04-11T01:08:46.727Z,83
2016-04-11T01:08:56.730Z,82.81
2016-04-11T01:09:06.730Z,82.71
2016-04-11T01:09:16.573Z,82.91
2016-04-11T01:09:26.734Z,82.81
2016-04-11T01:09:36.750Z,82.91
2016-04-11T01:09:46.750Z,83
2016-04-11T01:09:56.752Z,82.91
2016-04-11T01:10:06.752Z,83
2016-04-11T01:10:16.768Z,83
2016-04-11T01:10:26.768Z,82.71
2016-04-11T01:10:36.768Z,82.71
2016-04-11T01:10:46.783Z,83.1
2016-04-11T01:10:56.786Z,83.1
2016-04-11T01:11:06.786Z,82.81
2016-04-11T01:11:16.786Z,82.81
2016-04-11T01:11:26.802Z,83
2016-04-11T01:11:36.802Z,82.91
2016-04-11T01:11:46.802Z,82.91
2016-04-11T01:11:56.913Z,83.1
2016-04-11T01:12:06.820Z,83.29
2016-04-11T01:12:16.820Z,83
2016-04-11T01:12:26.820Z,83
2016-04-11T01:12:36.820Z,82.91
2016-04-11T01:12:46.835Z,83.19
2016-04-11T01:12:56.838Z,83.29
2016-04-11T01:13:06.838Z,83.76
2016-04-11T01:13:16.838Z,83.39
2016-04-11T01:13:26.854Z,83.76
2016-04-11T01:13:36.854Z,83.48
2016-04-11T01:13:46.854Z,83.39
2016-04-11T01:13:56.872Z,83.67
2016-04-11T01:14:06.872Z,83.58
2016-04-11T01:14:16.872Z,83.58
2016-04-11T01:14:26.888Z,83.58
2016-04-11T01:14:36.888Z,83.48
2016-04-11T01:14:46.888Z,83.67
2016-04-11T01:14:56.890Z,83.58
2016-04-11T01:15:06.906Z,83.58
2016-04-11T01:15:16.906Z,83.67
2016-04-11T01:15:26.906Z,83.67
2016-04-11T01:15:36.906Z,83.58
2016-04-11T01:15:46.921Z,83.48
2016-04-11T01:15:56.925Z,83.58
2016-04-11T01:16:06.925Z,83.48
2016-04-11T01:16:16.925Z,83.48
2016-04-11T01:16:26.941Z,83.48
2016-04-11T01:16:36.941Z,83.29
2016-04-11T01:16:46.941Z,83.39
2016-04-11T01:16:56.959Z,83.39
2016-04-11T01:17:06.959Z,83.58
2016-04-11T01:17:16.959Z,83.58
2016-04-11T01:17:26.974Z,83.58
2016-04-11T01:17:36.959Z,83.67
2016-04-11T01:17:46.974Z,83.76
2016-04-11T01:17:56.977Z,83.76
2016-04-11T01:18:06.977Z,83.76
2016-04-11T01:18:16.993Z,83.67
2016-04-11T01:18:26.993Z,83.95
2016-04-11T01:18:36.993Z,83.76
2016-04-11T01:18:46.993Z,83.76
2016-04-11T01:18:57.010Z,83.76
2016-04-11T01:19:07.010Z,83.67
2016-04-11T01:19:17.010Z,83.67
2016-04-11T01:19:27.026Z,83.48
2016-04-11T01:19:37.026Z,83.39
2016-04-11T01:19:47.026Z,83.58
2016-04-11T01:19:57.029Z,83.48
2016-04-11T01:20:07.045Z,83.58
2016-04-11T01:20:16.888Z,83.67
2016-04-11T01:20:27.045Z,83.58
2016-04-11T01:20:37.045Z,83.67
2016-04-11T01:20:47.060Z,83.48
2016-04-11T01:20:57.063Z,83.67
2016-04-11T01:21:07.063Z,83.48
2016-04-11T01:21:17.063Z,83.48
2016-04-11T01:21:27.079Z,83.48
2016-04-11T01:21:37.079Z,83.48
2016-04-11T01:21:47.079Z,83.48
2016-04-11T01:21:57.081Z,83.58
2016-04-11T01:22:07.097Z,83.48
2016-04-11T01:22:17.097Z,83.48
2016-04-11T01:22:27.097Z,83.39
2016-04-11T01:22:37.112Z,83.29
2016-04-11T01:22:47.112Z,83.48
2016-04-11T01:22:57.115Z,83.58
2016-04-11T01:23:07.131Z,83.58
2016-04-11T01:23:17.131Z,83.48
2016-04-11T01:23:27.131Z,83.58
2016-04-11T01:23:37.131Z,83.58
2016-04-11T01:23:47.146Z,83.48
2016-04-11T01:23:57.148Z,83.58
2016-04-11T01:24:07.148Z,83.76
2016-04-11T01:24:17.148Z,83.76
2016-04-11T01:24:27.148Z,83.58
2016-04-11T01:24:37.164Z,83.58
2016-04-11T01:24:47.164Z,83.76
2016-04-11T01:24:57.167Z,83.76
2016-04-11T01:25:07.183Z,83.39
2016-04-11T01:25:17.183Z,83.48
2016-04-11T01:25:27.183Z,83.58
2016-04-11T01:25:37.183Z,83.76
2016-04-11T01:25:47.198Z,83.48
2016-04-11T01:25:57.201Z,83.48
2016-04-11T01:26:07.233Z,83.58
2016-04-11T01:26:17.217Z,83.67
2016-04-11T01:26:27.217Z,83.67
2016-04-11T01:26:37.217Z,83.76
2016-04-11T01:26:47.217Z,83.58
2016-04-11T01:26:57.267Z,83.86
2016-04-11T01:27:07.407Z,83.76
2016-04-11T01:27:17.236Z,83.76
2016-04-11T01:27:27.236Z,83.86
2016-04-11T01:27:37.251Z,83.86
2016-04-11T01:27:47.251Z,83.76
2016-04-11T01:27:57.253Z,83.76
2016-04-11T01:28:07.253Z,83.48
2016-04-11T01:28:17.269Z,84.05
2016-04-11T01:28:27.269Z,84.05
2016-04-11T01:28:37.269Z,83.95
2016-04-11T01:28:47.284Z,83.86
2016-04-11T01:28:57.287Z,83.95
2016-04-11T01:29:07.287Z,83.86
2016-04-11T01:29:17.287Z,83.86
2016-04-11T01:29:27.303Z,83.76
2016-04-11T01:29:37.303Z,83.86
2016-04-11T01:29:47.303Z,83.76
2016-04-11T01:29:57.306Z,84.14
2016-04-11T01:30:07.322Z,84.24
2016-04-11T01:30:17.322Z,84.14
2016-04-11T01:30:27.322Z,84.33
2016-04-11T01:30:37.322Z,84.24
2016-04-11T01:30:47.337Z,84.05
2016-04-11T01:30:57.339Z,84.24
2016-04-11T01:31:07.339Z,83.91
2016-04-11T01:31:17.355Z,83.91
2016-04-11T01:31:27.355Z,84.39
2016-04-11T01:31:37.371Z,84.33
2016-04-11T01:31:47.355Z,84.2
2016-04-11T01:31:57.374Z,84.2
2016-04-11T01:32:07.374Z,84.72
2016-04-11T01:32:17.374Z,84.24
2016-04-11T01:32:27.389Z,84.33
2016-04-11T01:32:37.405Z,84.52
2016-04-11T01:32:47.389Z,84.52
2016-04-11T01:32:57.392Z,84.48
2016-04-11T01:33:07.408Z,84.24
2016-04-11T01:33:17.408Z,84.39
2016-04-11T01:33:27.408Z,84.29
2016-04-11T01:33:37.408Z,84.43
2016-04-11T01:33:47.423Z,84.24
2016-04-11T01:33:57.426Z,84.29
2016-04-11T01:34:07.426Z,84.29
2016-04-11T01:34:17.426Z,84.29
2016-04-11T01:34:27.442Z,84.2
2016-04-11T01:34:37.442Z,84.1
2016-04-11T01:34:47.442Z,84.1
2016-04-11T01:34:57.460Z,84.1
2016-04-11T01:35:07.460Z,84.29
2016-04-11T01:35:17.460Z,84.29
2016-04-11T01:35:27.460Z,84.2
2016-04-11T01:35:37.460Z,84.39
2016-04-11T01:35:47.475Z,84.05
2016-04-11T01:35:57.478Z,84.1
2016-04-11T01:36:07.494Z,84.01
2016-04-11T01:36:17.494Z,84.01
2016-04-11T01:36:27.494Z,84.29
2016-04-11T01:36:37.494Z,84.29
2016-04-11T01:36:47.494Z,84.29
2016-04-11T01:36:57.512Z,84.29
2016-04-11T01:37:07.512Z,84.29
2016-04-11T01:37:17.512Z,84.29
2016-04-11T01:37:27.527Z,84.29
2016-04-11T01:37:37.527Z,84.29
2016-04-11T01:37:47.527Z,84.1
2016-04-11T01:37:57.530Z,84.29
2016-04-11T01:38:07.546Z,84.01
2016-04-11T01:38:17.561Z,84.2
2016-04-11T01:38:27.546Z,84.01
2016-04-11T01:38:37.546Z,84.2
2016-04-11T01:38:47.561Z,84.2
2016-04-11T01:38:57.564Z,84.29
2016-04-11T01:39:07.580Z,84.2
2016-04-11T01:39:17.580Z,84.2
2016-04-11T01:39:27.580Z,84.2
2016-04-11T01:39:37.580Z,84.2
2016-04-11T01:39:47.580Z,84.39
2016-04-11T01:39:57.598Z,84.2
2016-04-11T01:40:07.598Z,84.2
2016-04-11T01:40:17.598Z,84.1
2016-04-11T01:40:27.598Z,84.2
2016-04-11T01:40:37.613Z,84.1
2016-04-11T01:40:47.629Z,84.01
2016-04-11T01:40:57.617Z,84.1
2016-04-11T01:41:07.633Z,84.2
2016-04-11T01:41:17.633Z,84.2
2016-04-11T01:41:27.633Z,84.1
2016-04-11T01:41:37.633Z,84.2
2016-04-11T01:41:47.649Z,84.2
2016-04-11T01:41:57.776Z,84.1
2016-04-11T01:42:07.651Z,84.29
2016-04-11T01:42:17.651Z,84.2
2016-04-11T01:42:27.651Z,84.2
2016-04-11T01:42:37.666Z,84.39
2016-04-11T01:42:47.666Z,84.2
2016-04-11T01:42:57.669Z,84.39
2016-04-11T01:43:07.685Z,84.1
2016-04-11T01:43:17.685Z,84.01
2016-04-11T01:43:27.685Z,84.29
2016-04-11T01:43:37.685Z,84.39
2016-04-11T01:43:47.700Z,84.48
2016-04-11T01:43:57.702Z,84.48
2016-04-11T01:44:07.702Z,84.58
2016-04-11T01:44:17.702Z,84.2
2016-04-11T01:44:27.718Z,84.48
2016-04-11T01:44:37.718Z,84.77
2016-04-11T01:44:47.718Z,84.58
2016-04-11T01:44:57.737Z,84.48
2016-04-11T01:45:07.737Z,84.67
2016-04-11T01:45:17.737Z,84.67
2016-04-11T01:45:27.737Z,84.77
2016-04-11T01:45:37.752Z,84.77
2016-04-11T01:45:47.752Z,84.86
2016-04-11T01:45:57.755Z,84.86
2016-04-11T01:46:07.755Z,84.95
2016-04-11T01:46:17.771Z,84.86
2016-04-11T01:46:27.771Z,84.67
2016-04-11T01:46:37.771Z,84.95
2016-04-11T01:46:47.771Z,84.86
2016-04-11T01:46:57.790Z,84.67
2016-04-11T01:47:07.790Z,84.77
2016-04-11T01:47:17.790Z,84.86
2016-04-11T01:47:27.805Z,84.58
2016-04-11T01:47:37.805Z,84.58
2016-04-11T01:47:47.805Z,84.77
2016-04-11T01:47:57.807Z,84.67
2016-04-11T01:48:07.823Z,84.58
2016-04-11T01:48:17.823Z,84.58
2016-04-11T01:48:27.823Z,84.58
2016-04-11T01:48:37.838Z,84.77
2016-04-11T01:48:47.838Z,84.58
2016-04-11T01:48:57.841Z,84.67
2016-04-11T01:49:07.841Z,84.67
2016-04-11T01:49:17.841Z,84.67
2016-04-11T01:49:27.873Z,84.67
2016-04-11T01:49:37.857Z,84.48
2016-04-11T01:49:47.857Z,84.67
2016-04-11T01:49:57.875Z,84.48
2016-04-11T01:50:07.875Z,84.67
2016-04-11T01:50:17.875Z,84.67
2016-04-11T01:50:27.890Z,84.58
2016-04-11T01:50:37.890Z,84.48
2016-04-11T01:50:47.890Z,84.48
2016-04-11T01:50:57.893Z,84.58
2016-04-11T01:51:07.893Z,84.58
2016-04-11T01:51:17.909Z,84.67
2016-04-11T01:51:27.909Z,84.67
2016-04-11T01:51:37.909Z,84.48
2016-04-11T01:51:47.925Z,84.58
2016-04-11T01:51:57.928Z,84.58
2016-04-11T01:52:07.928Z,84.58
2016-04-11T01:52:17.928Z,84.67
2016-04-11T01:52:27.943Z,84.67
2016-04-11T01:52:37.943Z,84.48
2016-04-11T01:52:47.943Z,84.48
2016-04-11T01:52:57.946Z,84.39
2016-04-11T01:53:07.962Z,84.58
2016-04-11T01:53:17.962Z,84.39
2016-04-11T01:53:27.962Z,84.39
2016-04-11T01:53:37.977Z,84.39
2016-04-11T01:53:47.977Z,84.48
2016-04-11T01:53:57.980Z,84.67
2016-04-11T01:54:07.980Z,84.39
2016-04-11T01:54:17.980Z,84.48
2016-04-11T01:54:27.996Z,84.67
2016-04-11T01:54:37.996Z,84.77
2016-04-11T01:54:47.996Z,84.48
2016-04-11T01:54:58.014Z,84.77
2016-04-11T01:55:08.014Z,84.77
2016-04-11T01:55:18.014Z,84.95
2016-04-11T01:55:28.014Z,84.95
2016-04-11T01:55:38.029Z,84.95
2016-04-11T01:55:48.029Z,84.95
2016-04-11T01:55:58.032Z,84.86
2016-04-11T01:56:08.048Z,84.77
2016-04-11T01:56:18.048Z,84.77
2016-04-11T01:56:28.048Z,84.86
2016-04-11T01:56:38.048Z,84.86
2016-04-11T01:56:48.064Z,84.77
2016-04-11T01:56:58.066Z,84.77
2016-04-11T01:57:08.081Z,84.67
2016-04-11T01:57:18.066Z,84.67
2016-04-11T01:57:28.081Z,84.77
2016-04-11T01:57:38.081Z,84.86
2016-04-11T01:57:47.925Z,84.77
2016-04-11T01:57:58.084Z,84.77
2016-04-11T01:58:08.100Z,84.86
2016-04-11T01:58:18.100Z,84.77
2016-04-11T01:58:28.100Z,85.05
2016-04-11T01:58:38.115Z,84.58
2016-04-11T01:58:48.115Z,84.95
2016-04-11T01:58:58.118Z,85.05
2016-04-11T01:59:08.118Z,84.95
2016-04-11T01:59:18.134Z,84.95
2016-04-11T01:59:28.134Z,84.95
2016-04-11T01:59:38.134Z,84.67
2016-04-11T01:59:48.150Z,84.67
2016-04-11T01:59:58.152Z,84.67
2016-04-11T02:00:08.152Z,84.86
2016-04-11T02:00:18.152Z,84.86
2016-04-11T02:00:28.167Z,85.05
2016-04-11T02:00:38.167Z,84.77
2016-04-11T02:00:48.167Z,85.24
2016-04-11T02:00:58.170Z,85.15
2016-04-11T02:01:08.186Z,85.24
2016-04-11T02:01:18.186Z,85.34
2016-04-11T02:01:28.186Z,84.95
2016-04-11T02:01:38.186Z,84.95
2016-04-11T02:01:48.202Z,84.95
2016-04-11T02:01:58.204Z,85.53
2016-04-11T02:02:08.204Z,84.95
2016-04-11T02:02:18.204Z,85.34
2016-04-11T02:02:28.204Z,84.95
2016-04-11T02:02:38.219Z,85.05
2016-04-11T02:02:48.219Z,85.15
2016-04-11T02:02:58.222Z,85.24
2016-04-11T02:03:08.238Z,85.24
2016-04-11T02:03:18.238Z,85.15
2016-04-11T02:03:28.238Z,85.15
2016-04-11T02:03:38.253Z,85.24
2016-04-11T02:03:48.253Z,85.43
2016-04-11T02:03:58.256Z,85.34
2016-04-11T02:04:08.256Z,85.34
2016-04-11T02:04:18.272Z,85.05
2016-04-11T02:04:28.272Z,84.95
2016-04-11T02:04:38.272Z,85.15
2016-04-11T02:04:48.288Z,85.05
2016-04-11T02:04:58.291Z,85.05
2016-04-11T02:05:08.306Z,85.05
2016-04-11T02:05:18.291Z,84.95
2016-04-11T02:05:28.291Z,84.67
2016-04-11T02:05:38.306Z,85.05
2016-04-11T02:05:48.306Z,84.95
2016-04-11T02:05:58.308Z,84.95
2016-04-11T02:06:08.308Z,85.05
2016-04-11T02:06:18.324Z,84.95
2016-04-11T02:06:28.324Z,85.05
2016-04-11T02:06:38.324Z,84.95
2016-04-11T02:06:48.340Z,85.05
2016-04-11T02:06:58.344Z,84.95
2016-04-11T02:07:08.344Z,84.86
2016-04-11T02:07:18.344Z,85.15
2016-04-11T02:07:28.359Z,85.24
2016-04-11T02:07:38.359Z,85.05
2016-04-11T02:07:48.359Z,84.86
2016-04-11T02:07:58.361Z,84.95
2016-04-11T02:08:08.377Z,85.34
2016-04-11T02:08:18.377Z,85.15
2016-04-11T02:08:28.377Z,85.34
2016-04-11T02:08:38.392Z,85.43
2016-04-11T02:08:48.392Z,85.34
2016-04-11T02:08:58.395Z,85.53
2016-04-11T02:09:08.395Z,85.24
2016-04-11T02:09:18.395Z,85.15